Time;durP1;ratioP1;P1;durP2;ratioP2;P2;SDS_P1;SDS_P2;PMS_P1;PMS_P2;Temp;Humidity;BMP_temperature;BMP_pressure;BME280_temperature;BME280_humidity;BME280_pressure;Samples;Min_cycle;Max_cycle;Signal;HPM_P1;HPM_P2
2022/01/20 00:03:45;;;;;;;0.70;0.70;;;;;;;;;;5003467;28;20185;-67
2022/01/20 00:28:17;;;;;;;0.70;0.70;;;;;;;;;;5022335;28;20260;-68
2022/01/20 00:30:56;;;;;;;0.73;0.73;;;;;;;;;;5020011;28;20221;-67
2022/01/20 00:33:35;;;;;;;0.70;0.70;;;;;;;;;;5017702;28;20268;-67
2022/01/20 00:38:33;;;;;;;0.70;0.70;;;;;;;;;;5019715;28;20262;-67
2022/01/20 00:40:59;;;;;;;0.70;0.70;;;;;;;;;;5018484;28;20618;-66
2022/01/20 00:43:25;;;;;;;0.70;0.70;;;;;;;;;;5018728;28;20213;-68
2022/01/20 00:45:52;;;;;;;0.70;0.70;;;;;;;;;;5021430;28;20813;-67
2022/01/20 00:48:18;;;;;;;0.70;0.70;;;;;;;;;;5021274;28;20868;-69
2022/01/20 00:50:45;;;;;;;0.63;0.63;;;;;;;;;;5018624;28;20180;-68
2022/01/20 00:53:10;;;;;;;0.60;0.60;;;;;;;;;;5020685;28;20183;-68
2022/01/20 00:55:38;;;;;;;0.53;0.53;;;;;;;;;;5013180;28;20302;-69
2022/01/20 00:58:03;;;;;;;0.70;0.70;;;;;;;;;;5019495;28;20475;-68
2022/01/20 01:00:29;;;;;;;0.70;0.70;;;;;;;;;;5021517;28;20593;-68
2022/01/20 01:02:59;;;;;;;0.70;0.70;;;;;;;;;;5020678;28;20419;-68
2022/01/20 01:05:26;;;;;;;0.77;0.77;;;;;;;;;;5017802;28;20516;-67
2022/01/20 01:07:54;;;;;;;0.60;0.60;;;;;;;;;;5020911;28;20203;-67
2022/01/20 01:10:30;;;;;;;0.70;0.70;;;;;;;;;;5021219;28;20173;-67
2022/01/20 01:13:13;;;;;;;0.68;0.68;;;;;;;;;;5019652;28;20169;-64
2022/01/20 01:15:43;;;;;;;0.60;0.60;;;;;;;;;;5017917;28;20332;-66
2022/01/20 01:23:25;;;;;;;0.70;0.70;;;;;;;;;;5021370;28;20558;-68
2022/01/20 01:25:51;;;;;;;0.60;0.60;;;;;;;;;;5019964;28;20260;-67
2022/01/20 01:28:19;;;;;;;0.60;0.60;;;;;;;;;;5020286;28;20230;-67
2022/01/20 01:33:11;;;;;;;0.60;0.60;;;;;;;;;;5021348;28;20723;-68
2022/01/20 01:35:40;;;;;;;0.70;0.70;;;;;;;;;;5019798;28;20851;-67
2022/01/20 01:40:34;;;;;;;0.68;0.68;;;;;;;;;;5020546;28;20187;-68
2022/01/20 01:43:06;;;;;;;0.70;0.70;;;;;;;;;;5019901;28;20182;-68
2022/01/20 01:45:35;;;;;;;0.70;0.70;;;;;;;;;;5012913;28;20349;-67
2022/01/20 01:48:01;;;;;;;0.50;0.50;;;;;;;;;;5021660;28;20194;-67
2022/01/20 01:50:27;;;;;;;0.70;0.70;;;;;;;;;;5018982;28;20182;-68
2022/01/20 01:52:55;;;;;;;0.70;0.70;;;;;;;;;;5022606;28;20540;-68
2022/01/20 01:55:21;;;;;;;0.63;0.63;;;;;;;;;;5023348;28;20193;-68
2022/01/20 01:57:47;;;;;;;0.70;0.70;;;;;;;;;;5022177;28;20286;-66
2022/01/20 02:00:14;;;;;;;0.70;0.70;;;;;;;;;;5023240;28;20174;-68
2022/01/20 02:02:42;;;;;;;0.77;0.77;;;;;;;;;;5024252;28;20197;-68
2022/01/20 02:05:10;;;;;;;0.75;0.75;;;;;;;;;;5020322;28;20573;-68
2022/01/20 02:21:08;;;;;;;0.70;0.70;;;;;;;;;;5020738;28;20196;-68
2022/01/20 02:23:34;;;;;;;0.90;0.90;;;;;;;;;;5023193;28;20266;-68
2022/01/20 02:26:00;;;;;;;0.80;0.80;;;;;;;;;;5023685;28;20451;-68
2022/01/20 02:28:27;;;;;;;0.70;0.70;;;;;;;;;;5022516;28;20452;-66
2022/01/20 02:30:54;;;;;;;0.70;0.70;;;;;;;;;;5023636;28;20618;-68
2022/01/20 02:33:21;;;;;;;0.70;0.70;;;;;;;;;;5020617;28;20278;-67
2022/01/20 02:35:52;;;;;;;0.70;0.70;;;;;;;;;;5020559;28;20692;-66
2022/01/20 02:39:10;;;;;;;0.70;0.70;;;;;;;;;;5023743;28;20239;-68
2022/01/20 02:46:35;;;;;;;0.70;0.70;;;;;;;;;;5017220;28;20205;-66
2022/01/20 02:49:01;;;;;;;0.60;0.60;;;;;;;;;;5022137;28;20179;-68
2022/01/20 02:51:27;;;;;;;0.80;0.80;;;;;;;;;;5021059;28;20184;-68
2022/01/20 02:53:53;;;;;;;0.70;0.70;;;;;;;;;;5021660;28;20220;-68
2022/01/20 02:56:19;;;;;;;0.70;0.70;;;;;;;;;;5022294;28;20232;-68
2022/01/20 02:58:46;;;;;;;0.88;0.88;;;;;;;;;;5021746;28;20174;-68
2022/01/20 03:01:12;;;;;;;0.60;0.60;;;;;;;;;;5023074;28;20181;-66
2022/01/20 03:03:38;;;;;;;0.70;0.70;;;;;;;;;;5021438;28;20186;-68
2022/01/20 03:06:04;;;;;;;0.60;0.60;;;;;;;;;;5023086;28;20211;-67
2022/01/20 03:08:30;;;;;;;0.70;0.70;;;;;;;;;;5022854;28;20327;-68
2022/01/20 03:10:56;;;;;;;0.60;0.60;;;;;;;;;;5022800;28;20171;-64
2022/01/20 03:13:22;;;;;;;0.70;0.70;;;;;;;;;;5021190;28;20653;-68
2022/01/20 03:15:49;;;;;;;0.70;0.70;;;;;;;;;;5022813;28;20240;-67
2022/01/20 03:18:15;;;;;;;0.70;0.70;;;;;;;;;;5022396;28;20920;-68
2022/01/20 03:20:41;;;;;;;0.60;0.60;;;;;;;;;;5022646;28;20187;-69
2022/01/20 03:23:07;;;;;;;0.73;0.73;;;;;;;;;;5020872;28;20421;-67
2022/01/20 03:25:33;;;;;;;0.70;0.70;;;;;;;;;;5021964;28;20209;-68
2022/01/20 03:27:59;;;;;;;0.60;0.60;;;;;;;;;;5022599;28;20203;-68
2022/01/20 03:30:26;;;;;;;0.90;0.90;;;;;;;;;;5021022;28;20434;-67
2022/01/20 03:32:52;;;;;;;0.75;0.75;;;;;;;;;;5022666;28;20228;-68
2022/01/20 03:35:18;;;;;;;0.70;0.70;;;;;;;;;;5020873;28;20208;-68
2022/01/20 03:37:44;;;;;;;0.80;0.80;;;;;;;;;;5022521;28;20180;-67
2022/01/20 03:40:11;;;;;;;0.60;0.60;;;;;;;;;;5021047;28;20172;-68
2022/01/20 03:42:37;;;;;;;0.80;0.80;;;;;;;;;;5022015;28;20197;-67
2022/01/20 03:45:04;;;;;;;0.73;0.73;;;;;;;;;;5020716;28;20206;-67
2022/01/20 03:47:30;;;;;;;0.77;0.77;;;;;;;;;;5018930;28;20211;-67
2022/01/20 03:52:25;;;;;;;0.57;0.57;;;;;;;;;;5023662;28;20417;-66
2022/01/20 03:54:51;;;;;;;0.80;0.80;;;;;;;;;;5021548;28;20614;-67
2022/01/20 03:57:17;;;;;;;0.80;0.80;;;;;;;;;;5022291;28;20190;-69
2022/01/20 03:59:44;;;;;;;0.80;0.80;;;;;;;;;;5023256;28;20453;-69
2022/01/20 04:02:10;;;;;;;0.80;0.80;;;;;;;;;;5027241;28;20632;-67
2022/01/20 04:04:36;;;;;;;0.70;0.70;;;;;;;;;;5022551;28;20200;-68
2022/01/20 04:07:02;;;;;;;0.70;0.70;;;;;;;;;;5021458;28;20253;-67
2022/01/20 04:09:28;;;;;;;0.80;0.80;;;;;;;;;;5023006;28;20408;-68
2022/01/20 04:11:54;;;;;;;0.70;0.70;;;;;;;;;;5044821;22;20579;-65
2022/01/20 04:14:23;;;;;;;0.60;0.60;;;;;;;;;;5020498;28;20405;-66
2022/01/20 04:17:14;;;;;;;0.60;0.60;;;;;;;;;;5020759;28;20165;-66
2022/01/20 04:19:43;;;;;;;0.60;0.60;;;;;;;;;;5019254;28;20165;-66
2022/01/20 04:22:09;;;;;;;0.70;0.70;;;;;;;;;;5020785;28;20194;-66
2022/01/20 04:24:37;;;;;;;0.60;0.60;;;;;;;;;;5022412;28;20197;-66
2022/01/20 04:27:03;;;;;;;0.60;0.60;;;;;;;;;;5021434;28;20459;-66
2022/01/20 04:29:41;;;;;;;0.50;0.50;;;;;;;;;;5020671;28;20214;-66
2022/01/20 04:32:07;;;;;;;0.60;0.60;;;;;;;;;;5021055;28;20200;-66
2022/01/20 04:34:33;;;;;;;0.60;0.60;;;;;;;;;;5020591;28;20199;-67
2022/01/20 04:37:02;;;;;;;0.70;0.70;;;;;;;;;;5022884;28;20210;-66
2022/01/20 04:39:31;;;;;;;0.70;0.70;;;;;;;;;;5022078;28;20175;-67
2022/01/20 04:41:57;;;;;;;0.80;0.80;;;;;;;;;;5018532;28;20198;-66
2022/01/20 04:44:37;;;;;;;0.60;0.60;;;;;;;;;;5021829;28;20302;-67
2022/01/20 04:58:10;;;;;;;0.70;0.70;;;;;;;;;;5021163;28;20270;-67
2022/01/20 05:00:36;;;;;;;0.65;0.65;;;;;;;;;;5020062;28;20180;-66
2022/01/20 05:03:04;;;;;;;0.60;0.60;;;;;;;;;;5020788;28;20256;-66
2022/01/20 05:05:30;;;;;;;0.60;0.60;;;;;;;;;;5022066;28;20415;-66
2022/01/20 05:07:56;;;;;;;0.60;0.60;;;;;;;;;;5016599;28;20284;-66
2022/01/20 05:10:22;;;;;;;0.60;0.60;;;;;;;;;;5011740;28;20265;-66
2022/01/20 05:15:17;;;;;;;0.60;0.60;;;;;;;;;;5011490;28;20185;-67
2022/01/20 05:17:43;;;;;;;0.65;0.65;;;;;;;;;;5011879;28;20182;-67
2022/01/20 05:20:09;;;;;;;0.60;0.60;;;;;;;;;;5011545;28;20715;-67
2022/01/20 05:22:35;;;;;;;0.60;0.60;;;;;;;;;;5011281;28;20525;-66
2022/01/20 05:25:02;;;;;;;0.50;0.50;;;;;;;;;;5011559;28;20642;-66
2022/01/20 05:27:28;;;;;;;0.60;0.60;;;;;;;;;;5014626;28;20196;-66
2022/01/20 05:29:55;;;;;;;0.57;0.57;;;;;;;;;;5015262;28;20634;-67
2022/01/20 05:32:21;;;;;;;0.50;0.50;;;;;;;;;;5015421;28;20432;-66
2022/01/20 05:34:47;;;;;;;0.50;0.50;;;;;;;;;;5015212;28;20177;-67
2022/01/20 05:37:13;;;;;;;0.60;0.60;;;;;;;;;;5015199;28;20295;-66
2022/01/20 05:39:39;;;;;;;0.50;0.50;;;;;;;;;;5015153;28;20178;-66
2022/01/20 05:42:05;;;;;;;0.60;0.60;;;;;;;;;;5013783;28;20252;-66
2022/01/20 05:44:31;;;;;;;0.60;0.60;;;;;;;;;;5014797;28;20465;-66
2022/01/20 05:46:57;;;;;;;0.60;0.60;;;;;;;;;;5014940;28;20177;-66
2022/01/20 05:49:23;;;;;;;0.60;0.60;;;;;;;;;;5014922;28;20173;-66
2022/01/20 05:51:52;;;;;;;0.60;0.60;;;;;;;;;;5014867;28;20848;-66
2022/01/20 05:54:19;;;;;;;0.50;0.50;;;;;;;;;;5014638;28;20403;-67
2022/01/20 05:56:45;;;;;;;0.60;0.60;;;;;;;;;;5014816;28;20170;-66
2022/01/20 05:59:11;;;;;;;0.63;0.63;;;;;;;;;;5014596;28;20170;-66
2022/01/20 06:01:38;;;;;;;0.60;0.60;;;;;;;;;;5014607;28;20195;-66
2022/01/20 06:04:05;;;;;;;0.60;0.60;;;;;;;;;;5014539;28;20178;-67
2022/01/20 06:06:32;;;;;;;0.60;0.60;;;;;;;;;;5014607;28;20230;-67
2022/01/20 06:08:58;;;;;;;0.50;0.50;;;;;;;;;;5014526;28;20313;-66
2022/01/20 06:11:24;;;;;;;0.63;0.63;;;;;;;;;;5014703;28;20267;-66
2022/01/20 06:13:50;;;;;;;0.60;0.60;;;;;;;;;;5014370;28;20174;-66
2022/01/20 06:16:16;;;;;;;0.60;0.60;;;;;;;;;;5014406;28;20173;-66
2022/01/20 06:18:42;;;;;;;0.60;0.60;;;;;;;;;;5014359;28;20184;-67
2022/01/20 06:21:08;;;;;;;0.60;0.60;;;;;;;;;;5014248;28;20473;-66
2022/01/20 06:23:35;;;;;;;0.60;0.60;;;;;;;;;;5012954;28;20405;-66
2022/01/20 06:26:05;;;;;;;0.50;0.50;;;;;;;;;;5014286;28;20170;-67
2022/01/20 06:28:31;;;;;;;0.60;0.60;;;;;;;;;;5014197;28;20549;-67
2022/01/20 06:30:57;;;;;;;0.70;0.70;;;;;;;;;;5012919;28;20690;-66
2022/01/20 06:33:23;;;;;;;0.60;0.60;;;;;;;;;;5013698;28;20344;-66
2022/01/20 06:35:49;;;;;;;0.50;0.50;;;;;;;;;;5014080;28;20408;-66
2022/01/20 06:38:15;;;;;;;0.60;0.60;;;;;;;;;;5013162;28;20176;-66
2022/01/20 06:40:42;;;;;;;0.60;0.60;;;;;;;;;;5014183;28;20206;-67
2022/01/20 06:43:08;;;;;;;0.60;0.60;;;;;;;;;;5012924;28;20615;-70
2022/01/20 06:45:34;;;;;;;0.65;0.65;;;;;;;;;;5014198;28;20184;-67
2022/01/20 06:48:00;;;;;;;0.60;0.60;;;;;;;;;;5013996;28;20289;-67
2022/01/20 06:50:27;;;;;;;0.60;0.60;;;;;;;;;;5012932;28;20203;-67
2022/01/20 06:52:53;;;;;;;0.60;0.60;;;;;;;;;;5013482;28;20201;-67
2022/01/20 06:55:19;;;;;;;0.60;0.60;;;;;;;;;;5013656;28;20173;-66
2022/01/20 06:57:45;;;;;;;0.57;0.57;;;;;;;;;;5012582;28;20178;-66
2022/01/20 07:00:13;;;;;;;0.60;0.60;;;;;;;;;;5013590;28;20415;-67
2022/01/20 07:02:39;;;;;;;0.70;0.70;;;;;;;;;;5011539;28;20449;-66
2022/01/20 07:05:05;;;;;;;0.60;0.60;;;;;;;;;;5013238;28;20185;-66
2022/01/20 07:07:31;;;;;;;0.60;0.60;;;;;;;;;;5012937;28;20477;-66
2022/01/20 07:09:57;;;;;;;0.60;0.60;;;;;;;;;;5013158;28;20178;-66
2022/01/20 07:12:23;;;;;;;0.60;0.60;;;;;;;;;;5012023;28;20771;-66
2022/01/20 07:14:49;;;;;;;0.70;0.70;;;;;;;;;;5013127;28;20258;-66
2022/01/20 07:17:15;;;;;;;0.50;0.50;;;;;;;;;;5013270;28;20817;-66
2022/01/20 07:19:41;;;;;;;0.50;0.50;;;;;;;;;;5013172;28;20176;-66
2022/01/20 07:22:07;;;;;;;0.60;0.60;;;;;;;;;;5011699;28;20768;-66
2022/01/20 07:24:33;;;;;;;0.60;0.60;;;;;;;;;;5012925;28;20428;-66
2022/01/20 07:26:59;;;;;;;0.50;0.50;;;;;;;;;;5012752;28;20182;-66
2022/01/20 07:29:26;;;;;;;0.50;0.50;;;;;;;;;;5013169;28;20176;-66
2022/01/20 07:31:52;;;;;;;0.60;0.60;;;;;;;;;;5012367;28;20198;-66
2022/01/20 07:34:18;;;;;;;0.60;0.60;;;;;;;;;;5012344;28;20304;-67
2022/01/20 07:36:44;;;;;;;0.57;0.57;;;;;;;;;;5012616;28;20181;-67
2022/01/20 07:39:10;;;;;;;0.70;0.70;;;;;;;;;;5007029;28;20189;-66
2022/01/20 07:41:36;;;;;;;0.60;0.60;;;;;;;;;;5012714;28;20447;-66
2022/01/20 07:44:02;;;;;;;0.60;0.60;;;;;;;;;;5012507;28;20417;-66
2022/01/20 07:46:28;;;;;;;0.60;0.60;;;;;;;;;;5011330;28;20412;-66
2022/01/20 07:48:54;;;;;;;0.60;0.60;;;;;;;;;;5011141;28;20405;-66
2022/01/20 07:51:20;;;;;;;0.67;0.67;;;;;;;;;;5011619;28;20272;-66
2022/01/20 07:53:46;;;;;;;0.60;0.60;;;;;;;;;;5012492;28;20422;-64
2022/01/20 07:56:13;;;;;;;0.57;0.57;;;;;;;;;;5012451;28;20174;-66
2022/01/20 07:58:39;;;;;;;0.60;0.60;;;;;;;;;;5012522;28;20178;-66
2022/01/20 08:01:08;;;;;;;0.50;0.50;;;;;;;;;;5012815;28;20202;-67
2022/01/20 08:03:35;;;;;;;0.60;0.60;;;;;;;;;;5011277;28;20176;-66
2022/01/20 08:06:00;;;;;;;0.60;0.60;;;;;;;;;;5012411;28;20186;-66
2022/01/20 08:08:26;;;;;;;0.60;0.60;;;;;;;;;;5012343;28;20232;-66
2022/01/20 08:10:52;;;;;;;0.60;0.60;;;;;;;;;;5012219;28;20440;-66
2022/01/20 08:13:18;;;;;;;0.60;0.60;;;;;;;;;;5012327;28;20419;-66
2022/01/20 08:15:44;;;;;;;0.60;0.60;;;;;;;;;;5012295;28;20181;-66
2022/01/20 08:18:10;;;;;;;0.60;0.60;;;;;;;;;;5010873;28;20507;-66
2022/01/20 08:20:36;;;;;;;0.60;0.60;;;;;;;;;;5012080;28;20410;-66
2022/01/20 08:23:02;;;;;;;0.60;0.60;;;;;;;;;;5011961;28;20437;-66
2022/01/20 08:25:28;;;;;;;0.60;0.60;;;;;;;;;;5010685;28;20559;-66
2022/01/20 08:27:54;;;;;;;0.60;0.60;;;;;;;;;;5011963;28;20284;-66
2022/01/20 08:30:21;;;;;;;0.60;0.60;;;;;;;;;;5009086;28;20501;-66
2022/01/20 08:32:48;;;;;;;0.60;0.60;;;;;;;;;;5011110;28;20222;-66
2022/01/20 08:35:14;;;;;;;0.60;0.60;;;;;;;;;;4994574;28;20291;-66
2022/01/20 08:37:43;;;;;;;0.60;0.60;;;;;;;;;;5010170;28;20696;-65
2022/01/20 08:40:13;;;;;;;0.68;0.68;;;;;;;;;;5010008;28;20190;-66
2022/01/20 08:42:40;;;;;;;0.60;0.60;;;;;;;;;;4998716;28;20258;-67
2022/01/20 08:45:07;;;;;;;0.70;0.70;;;;;;;;;;5009785;28;20221;-65
2022/01/20 08:47:33;;;;;;;0.60;0.60;;;;;;;;;;5009665;28;20197;-66
2022/01/20 08:49:59;;;;;;;0.60;0.60;;;;;;;;;;5011607;28;20217;-66
2022/01/20 08:52:28;;;;;;;0.70;0.70;;;;;;;;;;5009223;28;20206;-66
2022/01/20 08:54:55;;;;;;;0.60;0.60;;;;;;;;;;5011840;28;20414;-66
2022/01/20 08:57:21;;;;;;;0.50;0.50;;;;;;;;;;5011580;28;20573;-66
2022/01/20 08:59:47;;;;;;;0.60;0.60;;;;;;;;;;5011683;28;20686;-66
2022/01/20 09:02:13;;;;;;;0.60;0.60;;;;;;;;;;5011240;28;20203;-66
2022/01/20 09:04:39;;;;;;;0.60;0.60;;;;;;;;;;5011382;28;20266;-67
2022/01/20 09:07:05;;;;;;;0.55;0.55;;;;;;;;;;5011714;28;20182;-67
2022/01/20 09:09:33;;;;;;;0.60;0.60;;;;;;;;;;5011712;28;20176;-66
2022/01/20 09:17:22;;;;;;;0.60;0.60;;;;;;;;;;5011797;28;20607;-66
2022/01/20 09:19:48;;;;;;;0.50;0.50;;;;;;;;;;5010158;28;20223;-66
2022/01/20 09:22:14;;;;;;;0.60;0.60;;;;;;;;;;5011328;28;20813;-66
2022/01/20 09:24:47;;;;;;;0.60;0.60;;;;;;;;;;5011336;28;20469;-66
2022/01/20 09:27:13;;;;;;;0.60;0.60;;;;;;;;;;5011412;28;20286;-66
2022/01/20 09:29:39;;;;;;;0.60;0.60;;;;;;;;;;5011531;28;20184;-66
2022/01/20 09:32:07;;;;;;;0.50;0.50;;;;;;;;;;5010932;28;20301;-66
2022/01/20 09:34:33;;;;;;;0.60;0.60;;;;;;;;;;5011322;28;20593;-66
2022/01/20 09:37:00;;;;;;;0.60;0.60;;;;;;;;;;5011362;28;20179;-66
2022/01/20 09:39:26;;;;;;;0.60;0.60;;;;;;;;;;5011392;28;20268;-66
2022/01/20 09:41:52;;;;;;;0.50;0.50;;;;;;;;;;5011368;28;20185;-66
2022/01/20 09:44:18;;;;;;;0.60;0.60;;;;;;;;;;5011084;28;20802;-66
2022/01/20 09:46:45;;;;;;;0.60;0.60;;;;;;;;;;5011390;28;20177;-67
2022/01/20 09:49:11;;;;;;;0.60;0.60;;;;;;;;;;5011456;28;20729;-66
2022/01/20 09:51:38;;;;;;;0.50;0.50;;;;;;;;;;5011440;28;20273;-67
2022/01/20 09:54:04;;;;;;;0.60;0.60;;;;;;;;;;5011260;28;20324;-67
2022/01/20 09:56:30;;;;;;;0.50;0.50;;;;;;;;;;5011208;28;20209;-66
2022/01/20 09:58:56;;;;;;;0.60;0.60;;;;;;;;;;5010959;28;20254;-66
2022/01/20 10:01:35;;;;;;;0.60;0.60;;;;;;;;;;5009969;28;20533;-66
2022/01/20 10:04:01;;;;;;;0.60;0.60;;;;;;;;;;5010952;28;20180;-66
2022/01/20 10:06:27;;;;;;;0.60;0.60;;;;;;;;;;5011460;28;20616;-66
2022/01/20 10:08:59;;;;;;;0.50;0.50;;;;;;;;;;5009766;28;20208;-66
2022/01/20 10:11:25;;;;;;;4.60;3.17;;;;;;;;;;5022912;22;20218;-65
2022/01/20 10:13:51;;;;;;;0.60;0.60;;;;;;;;;;5010539;28;20204;-63
2022/01/20 10:16:18;;;;;;;0.60;0.60;;;;;;;;;;5014060;28;20175;-65
2022/01/20 10:18:53;;;;;;;0.50;0.50;;;;;;;;;;5013219;28;21006;-63
2022/01/20 10:21:26;;;;;;;0.73;0.73;;;;;;;;;;5015328;28;20169;-65
2022/01/20 10:23:52;;;;;;;0.50;0.50;;;;;;;;;;5032290;28;20266;-65
2022/01/20 10:26:20;;;;;;;0.60;0.60;;;;;;;;;;5032909;28;20217;-64
2022/01/20 10:28:51;;;;;;;0.60;0.60;;;;;;;;;;5033737;28;20457;-65
2022/01/20 10:31:19;;;;;;;0.70;0.70;;;;;;;;;;5034109;28;20172;-64
2022/01/20 10:33:46;;;;;;;0.60;0.60;;;;;;;;;;5015893;28;20207;-64
2022/01/20 10:36:13;;;;;;;0.60;0.60;;;;;;;;;;5033898;28;20259;-64
2022/01/20 10:38:55;;;;;;;0.60;0.60;;;;;;;;;;5033409;28;20176;-64
2022/01/20 10:41:32;;;;;;;0.50;0.50;;;;;;;;;;5016528;28;20210;-64
2022/01/20 10:44:03;;;;;;;0.50;0.50;;;;;;;;;;5033134;28;20223;-64
2022/01/20 10:46:41;;;;;;;0.57;0.57;;;;;;;;;;5033375;28;20654;-64
2022/01/20 10:49:07;;;;;;;0.60;0.60;;;;;;;;;;5032798;28;20230;-64
2022/01/20 10:51:33;;;;;;;0.60;0.60;;;;;;;;;;5033690;28;20236;-64
2022/01/20 10:54:11;;;;;;;0.60;0.60;;;;;;;;;;5033424;28;20418;-63
2022/01/20 10:56:47;;;;;;;0.60;0.60;;;;;;;;;;5016456;28;20865;-64
2022/01/20 10:59:13;;;;;;;0.50;0.50;;;;;;;;;;5033854;28;20175;-64
2022/01/20 11:01:39;;;;;;;0.70;0.70;;;;;;;;;;5033656;28;20197;-64
2022/01/20 11:04:05;;;;;;;0.60;0.60;;;;;;;;;;5033555;28;20233;-64
2022/01/20 11:06:34;;;;;;;0.60;0.60;;;;;;;;;;5033182;28;20414;-64
2022/01/20 11:09:00;;;;;;;0.60;0.60;;;;;;;;;;5033803;28;20199;-64
2022/01/20 11:11:26;;;;;;;0.60;0.60;;;;;;;;;;5033608;28;20186;-65
2022/01/20 11:13:52;;;;;;;0.50;0.50;;;;;;;;;;5033630;28;20667;-64
2022/01/20 11:16:21;;;;;;;0.60;0.60;;;;;;;;;;5033709;28;20412;-62
2022/01/20 11:18:47;;;;;;;0.57;0.57;;;;;;;;;;5033513;28;20651;-65
2022/01/20 11:21:22;;;;;;;0.60;0.60;;;;;;;;;;5034089;28;20205;-65
2022/01/20 11:23:48;;;;;;;0.60;0.60;;;;;;;;;;5033025;28;20417;-65
2022/01/20 11:26:14;;;;;;;0.60;0.60;;;;;;;;;;5033171;28;20179;-65
2022/01/20 11:28:40;;;;;;;0.70;0.70;;;;;;;;;;5032903;28;20725;-64
2022/01/20 11:31:08;;;;;;;0.60;0.60;;;;;;;;;;5033186;28;20470;-65
2022/01/20 11:33:38;;;;;;;0.60;0.60;;;;;;;;;;5033418;28;20411;-65
2022/01/20 11:36:05;;;;;;;0.60;0.60;;;;;;;;;;5033121;28;20183;-64
2022/01/20 11:38:37;;;;;;;0.60;0.60;;;;;;;;;;5032524;28;20302;-64
2022/01/20 11:41:04;;;;;;;0.50;0.50;;;;;;;;;;5033094;28;20179;-64
2022/01/20 11:43:33;;;;;;;0.50;0.50;;;;;;;;;;5033016;28;20172;-64
2022/01/20 11:46:13;;;;;;;0.60;0.60;;;;;;;;;;5032981;28;20191;-64
2022/01/20 11:48:54;;;;;;;0.60;0.60;;;;;;;;;;5033386;28;20194;-63
2022/01/20 11:51:20;;;;;;;0.70;0.70;;;;;;;;;;5032535;28;20182;-65
2022/01/20 11:54:04;;;;;;;0.50;0.50;;;;;;;;;;5032877;28;20213;-62
2022/01/20 11:56:35;;;;;;;0.60;0.60;;;;;;;;;;5033134;28;20226;-65
2022/01/20 11:59:01;;;;;;;0.60;0.60;;;;;;;;;;5032732;28;20199;-64
2022/01/20 12:01:30;;;;;;;0.50;0.50;;;;;;;;;;5032742;28;20243;-64
2022/01/20 12:03:56;;;;;;;0.60;0.60;;;;;;;;;;5032871;28;20184;-64
2022/01/20 12:06:24;;;;;;;0.60;0.60;;;;;;;;;;5033038;28;20551;-64
2022/01/20 12:08:57;;;;;;;0.55;0.55;;;;;;;;;;5032680;28;20261;-64
2022/01/20 12:11:33;;;;;;;0.60;0.60;;;;;;;;;;5032793;28;20681;-64
2022/01/20 12:13:59;;;;;;;0.50;0.50;;;;;;;;;;5032317;28;20639;-64
2022/01/20 12:16:25;;;;;;;0.60;0.60;;;;;;;;;;5032621;28;20182;-64
2022/01/20 12:18:51;;;;;;;0.60;0.60;;;;;;;;;;5014945;28;20274;-64
2022/01/20 12:21:18;;;;;;;0.50;0.50;;;;;;;;;;5032551;28;20414;-64
2022/01/20 12:23:45;;;;;;;0.60;0.60;;;;;;;;;;5032292;28;20191;-63
2022/01/20 12:26:11;;;;;;;0.60;0.60;;;;;;;;;;5032548;28;20185;-64
2022/01/20 12:28:37;;;;;;;0.50;0.50;;;;;;;;;;5032215;28;20815;-64
2022/01/20 12:31:03;;;;;;;0.60;0.60;;;;;;;;;;5030640;28;20176;-64
2022/01/20 12:33:32;;;;;;;0.63;0.63;;;;;;;;;;5012696;28;20170;-64
2022/01/20 12:36:03;;;;;;;0.57;0.57;;;;;;;;;;5011885;28;20173;-64
2022/01/20 12:38:29;;;;;;;0.70;0.70;;;;;;;;;;5012329;28;20287;-64
2022/01/20 12:41:08;;;;;;;0.70;0.70;;;;;;;;;;5012505;28;20211;-64
2022/01/20 12:43:40;;;;;;;0.68;0.68;;;;;;;;;;5012040;28;20415;-64
2022/01/20 12:46:08;;;;;;;0.60;0.60;;;;;;;;;;5012554;28;20645;-64
2022/01/20 12:48:34;;;;;;;0.60;0.60;;;;;;;;;;4994855;28;20262;-64
2022/01/20 12:51:04;;;;;;;0.60;0.60;;;;;;;;;;5012504;28;20175;-64
2022/01/20 12:53:33;;;;;;;0.60;0.60;;;;;;;;;;5012217;28;20164;-65
2022/01/20 12:55:59;;;;;;;0.68;0.68;;;;;;;;;;5012287;28;20177;-65
2022/01/20 12:58:25;;;;;;;0.60;0.60;;;;;;;;;;5012247;28;20224;-65
2022/01/20 13:01:01;;;;;;;0.60;0.60;;;;;;;;;;5012331;28;20185;-64
2022/01/20 13:03:38;;;;;;;0.70;0.70;;;;;;;;;;5012248;28;20464;-64
2022/01/20 13:06:05;;;;;;;0.70;0.70;;;;;;;;;;5012056;28;20177;-64
2022/01/20 13:08:35;;;;;;;0.50;0.50;;;;;;;;;;5012040;28;20224;-64
2022/01/20 13:11:05;;;;;;;0.70;0.70;;;;;;;;;;5012584;28;20256;-64
2022/01/20 13:13:31;;;;;;;0.60;0.60;;;;;;;;;;5011827;28;20193;-64
2022/01/20 13:15:57;;;;;;;0.65;0.65;;;;;;;;;;5012227;28;20181;-64
2022/01/20 13:18:23;;;;;;;0.60;0.60;;;;;;;;;;5012348;28;20173;-64
2022/01/20 13:20:59;;;;;;;0.70;0.70;;;;;;;;;;5012028;28;20201;-64
2022/01/20 13:26:07;;;;;;;0.60;0.60;;;;;;;;;;5012031;28;20641;-62
2022/01/20 13:28:33;;;;;;;0.70;0.70;;;;;;;;;;5011704;28;20211;-63
2022/01/20 13:31:12;;;;;;;0.80;0.80;;;;;;;;;;5012063;28;20637;-63
2022/01/20 13:33:39;;;;;;;0.60;0.60;;;;;;;;;;5011914;28;20786;-63
2022/01/20 13:36:05;;;;;;;0.60;0.60;;;;;;;;;;5011262;28;20630;-64
2022/01/20 13:38:32;;;;;;;0.60;0.60;;;;;;;;;;5011736;28;20564;-63
2022/01/20 13:41:24;;;;;;;0.60;0.60;;;;;;;;;;5011319;28;20174;-63
2022/01/20 13:46:38;;;;;;;0.60;0.60;;;;;;;;;;5012041;28;20239;-63
2022/01/20 13:49:07;;;;;;;0.70;0.70;;;;;;;;;;5015441;28;20736;-63
2022/01/20 13:51:33;;;;;;;0.57;0.57;;;;;;;;;;5015446;28;20201;-64
2022/01/20 13:53:59;;;;;;;0.70;0.70;;;;;;;;;;5016397;28;20250;-65
2022/01/20 13:56:25;;;;;;;0.67;0.67;;;;;;;;;;4998134;28;20260;-63
2022/01/20 13:59:01;;;;;;;0.60;0.60;;;;;;;;;;5015314;28;20443;-63
2022/01/20 14:01:27;;;;;;;0.70;0.70;;;;;;;;;;5015577;28;20769;-65
2022/01/20 14:03:53;;;;;;;0.70;0.70;;;;;;;;;;5015625;28;20228;-65
2022/01/20 14:06:19;;;;;;;0.60;0.60;;;;;;;;;;5015299;28;20455;-64
2022/01/20 14:08:47;;;;;;;0.60;0.60;;;;;;;;;;5014869;28;20452;-64
2022/01/20 14:11:12;;;;;;;0.70;0.70;;;;;;;;;;5015185;28;20828;-64
2022/01/20 14:13:38;;;;;;;0.70;0.70;;;;;;;;;;5015092;28;20173;-64
2022/01/20 14:16:04;;;;;;;0.50;0.50;;;;;;;;;;5015130;28;20407;-64
2022/01/20 14:18:40;;;;;;;0.60;0.60;;;;;;;;;;5015025;28;20405;-64
2022/01/20 14:21:07;;;;;;;0.60;0.60;;;;;;;;;;5014865;28;20648;-64
2022/01/20 14:23:33;;;;;;;0.60;0.60;;;;;;;;;;5014555;28;20184;-64
2022/01/20 14:26:01;;;;;;;0.80;0.80;;;;;;;;;;5025971;28;20644;-64
2022/01/20 14:28:26;;;;;;;0.70;0.70;;;;;;;;;;5034150;28;20459;-64
2022/01/20 14:30:52;;;;;;;0.50;0.50;;;;;;;;;;5033529;28;20231;-64
2022/01/20 14:33:19;;;;;;;0.60;0.60;;;;;;;;;;5034377;28;20471;-64
2022/01/20 14:35:45;;;;;;;0.60;0.60;;;;;;;;;;5034865;28;20177;-64
2022/01/20 14:38:11;;;;;;;0.60;0.60;;;;;;;;;;5034452;28;20179;-64
2022/01/20 14:40:37;;;;;;;0.50;0.50;;;;;;;;;;5033998;28;20840;-64
2022/01/20 14:43:03;;;;;;;0.60;0.60;;;;;;;;;;5033694;28;20479;-64
2022/01/20 14:45:29;;;;;;;0.60;0.60;;;;;;;;;;5034501;28;20411;-64
2022/01/20 14:47:55;;;;;;;0.60;0.60;;;;;;;;;;5034235;28;20208;-64
2022/01/20 14:50:22;;;;;;;0.60;0.60;;;;;;;;;;5016353;28;20181;-64
2022/01/20 14:52:48;;;;;;;0.50;0.50;;;;;;;;;;5033414;28;20438;-63
2022/01/20 14:55:15;;;;;;;0.60;0.60;;;;;;;;;;5033642;28;20654;-64
2022/01/20 14:57:41;;;;;;;0.60;0.60;;;;;;;;;;5033680;28;20177;-64
2022/01/20 15:00:08;;;;;;;0.60;0.60;;;;;;;;;;5033127;28;20548;-64
2022/01/20 15:02:34;;;;;;;0.60;0.60;;;;;;;;;;5033005;28;20244;-63
2022/01/20 15:04:59;;;;;;;0.60;0.60;;;;;;;;;;5032915;28;20202;-64
2022/01/20 15:07:25;;;;;;;0.70;0.70;;;;;;;;;;5032393;28;20571;-64
2022/01/20 15:09:52;;;;;;;0.60;0.60;;;;;;;;;;5015588;28;20478;-64
2022/01/20 15:12:18;;;;;;;0.55;0.55;;;;;;;;;;5033118;28;20439;-64
2022/01/20 15:14:44;;;;;;;0.70;0.70;;;;;;;;;;5032662;28;20220;-64
2022/01/20 15:17:10;;;;;;;0.70;0.70;;;;;;;;;;5029496;28;20594;-64
2022/01/20 15:19:36;;;;;;;0.60;0.60;;;;;;;;;;5013028;28;20519;-64
2022/01/20 15:22:02;;;;;;;0.70;0.70;;;;;;;;;;5013210;28;20519;-64
2022/01/20 15:24:30;;;;;;;0.60;0.60;;;;;;;;;;5013086;28;20176;-64
2022/01/20 15:26:56;;;;;;;0.60;0.60;;;;;;;;;;5012997;28;20248;-63
2022/01/20 15:29:22;;;;;;;0.70;0.70;;;;;;;;;;5013403;28;20205;-64
2022/01/20 15:31:48;;;;;;;0.70;0.70;;;;;;;;;;5012910;28;20201;-64
2022/01/20 15:34:14;;;;;;;0.60;0.60;;;;;;;;;;5012850;28;20440;-63
2022/01/20 15:36:46;;;;;;;0.60;0.60;;;;;;;;;;5012881;28;20176;-64
2022/01/20 15:39:12;;;;;;;0.60;0.60;;;;;;;;;;5013129;28;20545;-64
2022/01/20 15:41:39;;;;;;;0.60;0.60;;;;;;;;;;5012848;28;20277;-64
2022/01/20 15:44:05;;;;;;;0.68;0.68;;;;;;;;;;5012596;28;20231;-64
2022/01/20 15:46:32;;;;;;;0.80;0.80;;;;;;;;;;5010720;28;20185;-64
2022/01/20 15:48:58;;;;;;;0.57;0.57;;;;;;;;;;4995387;28;20211;-64
2022/01/20 15:51:24;;;;;;;0.70;0.70;;;;;;;;;;5012731;28;20236;-64
2022/01/20 15:53:50;;;;;;;0.70;0.70;;;;;;;;;;5012180;28;20412;-61
2022/01/20 15:56:16;;;;;;;0.60;0.60;;;;;;;;;;5012795;28;20491;-64
2022/01/20 15:58:42;;;;;;;0.80;0.80;;;;;;;;;;5012860;28;20767;-64
2022/01/20 16:01:09;;;;;;;0.90;0.90;;;;;;;;;;5012996;28;20169;-64
2022/01/20 16:03:35;;;;;;;0.70;0.70;;;;;;;;;;5011974;28;20181;-64
2022/01/20 16:06:02;;;;;;;0.70;0.70;;;;;;;;;;4995319;28;20182;-64
2022/01/20 16:08:28;;;;;;;0.70;0.70;;;;;;;;;;5013094;28;20205;-64